Time;durP1;ratioP1;P1;durP2;ratioP2;P2;SDS_P1;SDS_P2;PMS_P1;PMS_P2;Temp;Humidity;BMP_temperature;BMP_pressure;BME280_temperature;BME280_humidity;BME280_pressure;Samples;Min_cycle;Max_cycle;Signal;HPM_P1;HPM_P2
2022/12/18 00:00:47;;;;;;;164.40;51.47;;;;;;;;;;5111926;27;20453;-80
2022/12/18 00:03:17;;;;;;;155.13;48.42;;;;;;;;;;5114323;27;20423;-80
2022/12/18 00:05:47;;;;;;;163.05;54.85;;;;;;;;;;5114496;27;20925;-80
2022/12/18 00:08:13;;;;;;;320.97;57.53;;;;;;;;;;5104509;28;20957;-80
2022/12/18 00:10:39;;;;;;;149.07;45.33;;;;;;;;;;5095672;28;20903;-80
2022/12/18 00:13:05;;;;;;;149.25;46.85;;;;;;;;;;5112425;27;20406;-80
2022/12/18 00:15:33;;;;;;;131.68;45.10;;;;;;;;;;5114302;27;20418;-80
2022/12/18 00:17:59;;;;;;;224.43;54.13;;;;;;;;;;5101274;28;20448;-80
2022/12/18 00:20:25;;;;;;;130.70;44.38;;;;;;;;;;5112919;27;20406;-79
2022/12/18 00:22:55;;;;;;;131.98;43.63;;;;;;;;;;5112401;27;20406;-80
2022/12/18 00:25:21;;;;;;;126.47;43.83;;;;;;;;;;5115428;27;20420;-79
2022/12/18 00:27:47;;;;;;;271.15;54.88;;;;;;;;;;5081478;27;20423;-79
2022/12/18 00:30:13;;;;;;;119.05;44.97;;;;;;;;;;5078494;28;20411;-79
2022/12/18 00:32:39;;;;;;;133.45;43.38;;;;;;;;;;5113944;27;20414;-79
2022/12/18 00:35:06;;;;;;;118.57;41.10;;;;;;;;;;5112843;27;20491;-79
2022/12/18 00:37:33;;;;;;;199.52;49.55;;;;;;;;;;5097047;27;20418;-79
2022/12/18 00:39:59;;;;;;;244.45;49.60;;;;;;;;;;5111430;27;20425;-80
2022/12/18 00:45:10;;;;;;;120.10;43.45;;;;;;;;;;5112531;27;20411;-80
2022/12/18 00:47:36;;;;;;;134.20;45.13;;;;;;;;;;5106077;27;20426;-80
2022/12/18 00:50:02;;;;;;;127.55;43.72;;;;;;;;;;5113561;27;20427;-80
2022/12/18 00:52:28;;;;;;;135.02;46.90;;;;;;;;;;5113033;27;20747;-79
2022/12/18 00:54:54;;;;;;;128.90;43.92;;;;;;;;;;5115668;27;20878;-80
2022/12/18 00:57:20;;;;;;;165.43;48.83;;;;;;;;;;5072559;27;21259;-79
2022/12/18 00:59:47;;;;;;;150.27;46.58;;;;;;;;;;5114060;27;20488;-80
2022/12/18 01:02:13;;;;;;;135.53;44.07;;;;;;;;;;5109710;27;20438;-80
2022/12/18 01:04:39;;;;;;;120.68;42.67;;;;;;;;;;5097578;27;20416;-80
2022/12/18 01:07:05;;;;;;;123.17;41.10;;;;;;;;;;5112087;27;20407;-80
2022/12/18 01:09:31;;;;;;;125.93;43.17;;;;;;;;;;5114169;27;20415;-80
2022/12/18 01:11:57;;;;;;;365.83;57.97;;;;;;;;;;5112800;27;20502;-79
2022/12/18 01:14:23;;;;;;;128.27;41.25;;;;;;;;;;5110663;27;20406;-80
2022/12/18 01:16:49;;;;;;;123.63;41.50;;;;;;;;;;5113893;27;20415;-79
2022/12/18 01:19:15;;;;;;;122.38;42.10;;;;;;;;;;5109213;27;20499;-80
2022/12/18 01:21:41;;;;;;;117.88;41.65;;;;;;;;;;5110101;27;20438;-80
2022/12/18 01:24:07;;;;;;;135.45;42.70;;;;;;;;;;5114132;27;20421;-80
2022/12/18 01:26:33;;;;;;;127.88;44.08;;;;;;;;;;5091457;27;20817;-80
2022/12/18 01:28:59;;;;;;;113.50;41.30;;;;;;;;;;5099913;27;20475;-79
2022/12/18 01:31:27;;;;;;;110.68;39.13;;;;;;;;;;5083993;28;20779;-79
2022/12/18 01:33:54;;;;;;;117.97;39.10;;;;;;;;;;5107811;27;20412;-79
2022/12/18 01:36:21;;;;;;;117.57;39.05;;;;;;;;;;5105831;27;20478;-80
2022/12/18 01:38:49;;;;;;;108.82;37.17;;;;;;;;;;5096112;27;20426;-80
2022/12/18 01:41:16;;;;;;;108.30;38.20;;;;;;;;;;5109512;28;20420;-79
2022/12/18 01:43:53;;;;;;;105.00;39.17;;;;;;;;;;5093860;28;20774;-79
2022/12/18 01:46:20;;;;;;;106.95;37.40;;;;;;;;;;5107786;28;25101;-80
2022/12/18 01:48:51;;;;;;;171.73;41.15;;;;;;;;;;5113932;27;20804;-72
2022/12/18 01:51:17;;;;;;;102.43;37.20;;;;;;;;;;5094931;27;20418;-72
2022/12/18 01:53:44;;;;;;;98.05;35.47;;;;;;;;;;5114421;27;20897;-79
2022/12/18 01:56:13;;;;;;;104.97;38.15;;;;;;;;;;5091174;27;20414;-79
2022/12/18 01:58:58;;;;;;;107.18;36.85;;;;;;;;;;5110972;28;20423;-78
2022/12/18 02:01:24;;;;;;;101.85;38.85;;;;;;;;;;5106980;28;20419;-79
2022/12/18 02:03:51;;;;;;;101.88;38.30;;;;;;;;;;5114208;28;20489;-79
2022/12/18 02:06:22;;;;;;;102.70;38.03;;;;;;;;;;5086046;28;20410;-79
2022/12/18 02:08:52;;;;;;;105.00;39.37;;;;;;;;;;5110134;28;20467;-79
2022/12/18 02:11:28;;;;;;;99.50;37.50;;;;;;;;;;5126842;28;20461;-72
2022/12/18 02:14:18;;;;;;;111.57;39.13;;;;;;;;;;5109925;28;25161;-73
2022/12/18 02:16:44;;;;;;;117.93;40.75;;;;;;;;;;5100505;28;25089;-79
2022/12/18 02:19:24;;;;;;;121.43;40.75;;;;;;;;;;5097663;28;20455;-79
2022/12/18 02:21:58;;;;;;;126.30;41.15;;;;;;;;;;5113423;28;20426;-79
2022/12/18 02:24:30;;;;;;;126.32;42.67;;;;;;;;;;5080863;28;20414;-79
2022/12/18 02:27:01;;;;;;;161.47;48.17;;;;;;;;;;5092448;28;20410;-80
2022/12/18 02:29:31;;;;;;;142.52;44.05;;;;;;;;;;5113744;28;20435;-72
2022/12/18 02:32:00;;;;;;;138.80;43.70;;;;;;;;;;5132159;28;20893;-72
2022/12/18 02:34:28;;;;;;;164.55;46.65;;;;;;;;;;5113290;28;20415;-79
2022/12/18 02:36:55;;;;;;;170.43;48.05;;;;;;;;;;5110321;28;20410;-80
2022/12/18 02:39:22;;;;;;;157.65;47.55;;;;;;;;;;5086946;28;20506;-78
2022/12/18 02:41:48;;;;;;;155.57;46.95;;;;;;;;;;5102163;28;20412;-78
2022/12/18 02:44:14;;;;;;;151.87;47.70;;;;;;;;;;5107940;28;20443;-78
2022/12/18 02:46:49;;;;;;;163.23;49.92;;;;;;;;;;5098306;28;20426;-79
2022/12/18 02:49:15;;;;;;;145.80;49.45;;;;;;;;;;5075856;28;25099;-71
2022/12/18 02:51:49;;;;;;;141.50;45.53;;;;;;;;;;5092272;28;20433;-78
2022/12/18 02:54:33;;;;;;;139.02;45.83;;;;;;;;;;5102263;28;20420;-79
2022/12/18 02:57:02;;;;;;;153.93;48.33;;;;;;;;;;5097577;28;20416;-79
2022/12/18 02:59:34;;;;;;;141.10;47.92;;;;;;;;;;5108945;28;20949;-78
2022/12/18 03:02:12;;;;;;;137.55;46.13;;;;;;;;;;5110488;28;20418;-72
2022/12/18 03:04:49;;;;;;;132.10;47.25;;;;;;;;;;5108847;28;25109;-79
2022/12/18 03:07:21;;;;;;;132.55;46.80;;;;;;;;;;5093394;28;25084;-79
2022/12/18 03:09:49;;;;;;;157.40;49.25;;;;;;;;;;5109900;28;20403;-79
2022/12/18 03:12:28;;;;;;;128.55;47.05;;;;;;;;;;5097768;28;20438;-78
2022/12/18 03:15:15;;;;;;;127.90;45.50;;;;;;;;;;5113947;28;20938;-79
2022/12/18 03:17:43;;;;;;;117.63;44.15;;;;;;;;;;5093392;28;20479;-79
2022/12/18 03:20:14;;;;;;;126.05;45.85;;;;;;;;;;5105367;28;20416;-79
2022/12/18 03:22:42;;;;;;;235.90;53.57;;;;;;;;;;5111498;28;20453;-78
2022/12/18 03:25:10;;;;;;;117.03;43.13;;;;;;;;;;5112252;28;20551;-79
2022/12/18 03:27:37;;;;;;;115.55;41.90;;;;;;;;;;5075667;28;20429;-79
2022/12/18 03:30:08;;;;;;;113.90;42.65;;;;;;;;;;5098826;28;20445;-78
2022/12/18 03:32:39;;;;;;;109.97;41.67;;;;;;;;;;5111437;28;20416;-79
2022/12/18 03:35:06;;;;;;;112.32;41.65;;;;;;;;;;5112117;28;20440;-78
2022/12/18 03:37:32;;;;;;;110.85;40.28;;;;;;;;;;5108446;27;20470;-78
2022/12/18 03:39:58;;;;;;;99.85;39.05;;;;;;;;;;5095819;28;20753;-78
2022/12/18 03:42:28;;;;;;;101.82;40.58;;;;;;;;;;5113323;28;20960;-78
2022/12/18 03:45:13;;;;;;;99.47;39.47;;;;;;;;;;5110599;28;20466;-78
2022/12/18 03:47:43;;;;;;;132.93;41.08;;;;;;;;;;5085532;28;20487;-77
2022/12/18 03:50:10;;;;;;;96.05;37.53;;;;;;;;;;5100078;28;20455;-78
2022/12/18 03:52:37;;;;;;;93.07;37.22;;;;;;;;;;5100399;28;20416;-78
2022/12/18 03:55:04;;;;;;;87.93;37.75;;;;;;;;;;5112444;28;20492;-78
2022/12/18 03:57:32;;;;;;;86.43;37.83;;;;;;;;;;5110809;28;20762;-78
2022/12/18 04:00:00;;;;;;;92.55;38.15;;;;;;;;;;5111217;28;20416;-78
2022/12/18 04:02:26;;;;;;;81.63;35.90;;;;;;;;;;5111294;28;20423;-78
2022/12/18 04:04:57;;;;;;;85.50;36.28;;;;;;;;;;5091642;28;20429;-77
2022/12/18 04:07:23;;;;;;;83.82;34.45;;;;;;;;;;5092439;28;20414;-78
2022/12/18 04:09:51;;;;;;;84.55;35.95;;;;;;;;;;5104655;28;20420;-77
2022/12/18 04:12:17;;;;;;;82.22;35.53;;;;;;;;;;5092606;28;20420;-78
2022/12/18 04:14:43;;;;;;;143.27;39.67;;;;;;;;;;5092385;28;20536;-77
2022/12/18 04:17:09;;;;;;;82.38;34.75;;;;;;;;;;5092062;28;20417;-77
2022/12/18 04:19:35;;;;;;;81.25;35.58;;;;;;;;;;5101791;28;20496;-78
2022/12/18 04:22:01;;;;;;;79.07;34.50;;;;;;;;;;5109821;28;20412;-79
2022/12/18 04:24:27;;;;;;;82.78;35.22;;;;;;;;;;5110434;28;20468;-77
2022/12/18 04:26:53;;;;;;;75.50;35.22;;;;;;;;;;5104790;28;20404;-77
2022/12/18 04:29:19;;;;;;;80.75;33.28;;;;;;;;;;5112159;28;20443;-72
2022/12/18 04:31:46;;;;;;;75.65;33.40;;;;;;;;;;5109971;28;20420;-72
2022/12/18 04:34:12;;;;;;;78.38;33.05;;;;;;;;;;5110133;28;20813;-78
2022/12/18 04:36:38;;;;;;;72.30;31.88;;;;;;;;;;5110996;28;20935;-71
2022/12/18 04:39:04;;;;;;;80.50;33.70;;;;;;;;;;5079681;28;20781;-77
2022/12/18 04:41:30;;;;;;;76.53;33.25;;;;;;;;;;5091853;28;20416;-78
2022/12/18 04:43:56;;;;;;;74.95;33.55;;;;;;;;;;5091502;28;20434;-77
2022/12/18 04:46:22;;;;;;;69.70;32.80;;;;;;;;;;5104854;28;20416;-77
2022/12/18 04:48:48;;;;;;;129.75;39.60;;;;;;;;;;5090563;28;20546;-77
2022/12/18 04:51:17;;;;;;;84.17;38.33;;;;;;;;;;5073743;28;20880;-77
2022/12/18 04:53:43;;;;;;;84.55;37.10;;;;;;;;;;5111360;28;20442;-77
2022/12/18 04:56:10;;;;;;;91.32;36.22;;;;;;;;;;5082435;28;20463;-77
2022/12/18 04:58:37;;;;;;;79.00;34.72;;;;;;;;;;5100983;28;20416;-77
2022/12/18 05:01:04;;;;;;;80.00;33.33;;;;;;;;;;5104537;28;20911;-71
2022/12/18 05:03:30;;;;;;;77.13;34.35;;;;;;;;;;5111792;28;20448;-77
2022/12/18 05:05:56;;;;;;;92.72;34.38;;;;;;;;;;5111869;28;20838;-77
2022/12/18 05:08:22;;;;;;;78.38;32.25;;;;;;;;;;5077535;28;20913;-78
2022/12/18 05:10:48;;;;;;;80.50;33.35;;;;;;;;;;5097758;28;20987;-78
2022/12/18 05:13:14;;;;;;;78.00;32.35;;;;;;;;;;5109295;28;20737;-77
2022/12/18 05:15:41;;;;;;;81.53;33.53;;;;;;;;;;5109363;28;20768;-78
2022/12/18 05:18:08;;;;;;;81.50;32.90;;;;;;;;;;5080818;28;20423;-77
2022/12/18 05:20:34;;;;;;;190.90;40.40;;;;;;;;;;5094659;28;20776;-78
2022/12/18 05:23:00;;;;;;;80.72;32.20;;;;;;;;;;5081502;28;20419;-78
2022/12/18 05:25:26;;;;;;;76.90;32.58;;;;;;;;;;5093607;28;20812;-79
2022/12/18 05:27:52;;;;;;;75.30;31.30;;;;;;;;;;5092166;28;20504;-78
2022/12/18 05:30:18;;;;;;;79.13;32.35;;;;;;;;;;5078023;28;20792;-78
2022/12/18 05:32:46;;;;;;;73.00;30.02;;;;;;;;;;5091175;28;20576;-77
2022/12/18 05:35:12;;;;;;;73.93;31.35;;;;;;;;;;5074578;28;20449;-77
2022/12/18 05:37:38;;;;;;;76.63;31.48;;;;;;;;;;5100049;28;20484;-77
2022/12/18 05:40:05;;;;;;;93.05;33.40;;;;;;;;;;5071199;28;20422;-77
2022/12/18 05:42:31;;;;;;;72.88;31.63;;;;;;;;;;5093533;28;20445;-77
2022/12/18 05:44:57;;;;;;;83.13;32.05;;;;;;;;;;5075476;28;20408;-77
2022/12/18 05:47:23;;;;;;;71.72;29.83;;;;;;;;;;5109661;28;20431;-77
2022/12/18 05:49:49;;;;;;;135.63;37.30;;;;;;;;;;5096546;28;20763;-78
2022/12/18 05:52:15;;;;;;;77.25;31.63;;;;;;;;;;5109257;28;20406;-77
2022/12/18 05:54:41;;;;;;;148.87;39.20;;;;;;;;;;5082548;28;20417;-78
2022/12/18 05:57:07;;;;;;;73.07;30.95;;;;;;;;;;5089516;28;20412;-78
2022/12/18 05:59:34;;;;;;;75.53;31.87;;;;;;;;;;5099724;28;20416;-77
2022/12/18 06:02:00;;;;;;;79.18;32.63;;;;;;;;;;5108022;28;20458;-78
2022/12/18 06:04:28;;;;;;;87.57;33.55;;;;;;;;;;5093752;28;20396;-78
2022/12/18 06:06:54;;;;;;;87.57;33.35;;;;;;;;;;5098191;28;20429;-78
2022/12/18 06:09:20;;;;;;;75.30;31.55;;;;;;;;;;5073421;28;20551;-78
2022/12/18 06:11:46;;;;;;;95.23;33.67;;;;;;;;;;5100155;28;20493;-78
2022/12/18 06:14:12;;;;;;;81.57;31.35;;;;;;;;;;5089059;28;20454;-78
2022/12/18 06:16:38;;;;;;;82.63;32.37;;;;;;;;;;5107601;28;20421;-78
2022/12/18 06:19:05;;;;;;;71.72;30.77;;;;;;;;;;5108869;28;20420;-78
2022/12/18 06:21:32;;;;;;;68.00;28.67;;;;;;;;;;5108254;28;20493;-78
2022/12/18 06:23:58;;;;;;;70.65;29.85;;;;;;;;;;5094460;28;20411;-78
2022/12/18 06:26:24;;;;;;;73.03;30.10;;;;;;;;;;5091113;28;20777;-78
2022/12/18 06:28:51;;;;;;;75.72;32.13;;;;;;;;;;5101083;28;20416;-78
2022/12/18 06:31:17;;;;;;;74.47;32.30;;;;;;;;;;5106752;28;20454;-78
2022/12/18 06:33:43;;;;;;;65.45;30.23;;;;;;;;;;5108421;28;20423;-78
2022/12/18 06:36:10;;;;;;;98.60;34.90;;;;;;;;;;5091133;28;20428;-78
2022/12/18 06:38:37;;;;;;;86.05;32.38;;;;;;;;;;5103421;28;20428;-78
2022/12/18 06:41:21;;;;;;;70.50;30.42;;;;;;;;;;5078771;28;20816;-78
2022/12/18 06:43:48;;;;;;;65.72;30.10;;;;;;;;;;5072992;28;20944;-78
2022/12/18 06:46:14;;;;;;;69.50;29.95;;;;;;;;;;5104452;28;20411;-78
2022/12/18 06:48:43;;;;;;;87.57;31.88;;;;;;;;;;5092926;28;20819;-78
2022/12/18 06:51:09;;;;;;;71.40;31.93;;;;;;;;;;5112372;28;20408;-78
2022/12/18 06:53:35;;;;;;;69.05;30.33;;;;;;;;;;5109373;28;20494;-78
2022/12/18 06:56:05;;;;;;;62.73;28.90;;;;;;;;;;5099958;28;20432;-78
2022/12/18 06:58:32;;;;;;;61.42;28.30;;;;;;;;;;5111270;28;20459;-78
2022/12/18 07:01:01;;;;;;;61.20;28.92;;;;;;;;;;5110579;28;20452;-78
2022/12/18 07:03:27;;;;;;;62.53;29.45;;;;;;;;;;5093194;28;20957;-77
2022/12/18 07:05:53;;;;;;;62.22;31.38;;;;;;;;;;5101358;28;20412;-77
2022/12/18 07:08:19;;;;;;;112.85;34.60;;;;;;;;;;5111849;28;20415;-78
2022/12/18 07:10:46;;;;;;;83.28;31.67;;;;;;;;;;5096416;28;20429;-77
2022/12/18 07:13:12;;;;;;;56.67;27.42;;;;;;;;;;5107632;28;20424;-78
2022/12/18 07:15:38;;;;;;;61.85;30.73;;;;;;;;;;5075084;28;20426;-77
2022/12/18 07:18:04;;;;;;;68.68;29.58;;;;;;;;;;5076560;28;20513;-76
2022/12/18 07:20:30;;;;;;;59.30;27.85;;;;;;;;;;5083367;28;20408;-75
2022/12/18 07:22:56;;;;;;;54.92;26.23;;;;;;;;;;5076345;28;20428;-76
2022/12/18 07:25:22;;;;;;;52.85;26.45;;;;;;;;;;5107051;28;20979;-75
2022/12/18 07:27:48;;;;;;;74.30;26.38;;;;;;;;;;5084198;28;20783;-76
2022/12/18 07:30:14;;;;;;;50.40;26.25;;;;;;;;;;5107815;28;20495;-75
2022/12/18 07:32:43;;;;;;;51.72;25.10;;;;;;;;;;5072631;28;20784;-76
2022/12/18 07:35:09;;;;;;;51.58;26.65;;;;;;;;;;5101834;28;20522;-77
2022/12/18 07:37:35;;;;;;;80.68;28.13;;;;;;;;;;5104606;28;20937;-77
2022/12/18 07:40:01;;;;;;;50.75;24.77;;;;;;;;;;5075733;28;20426;-72
2022/12/18 07:42:30;;;;;;;47.95;24.00;;;;;;;;;;5089206;28;20416;-72
2022/12/18 07:44:56;;;;;;;49.35;24.33;;;;;;;;;;5090983;28;20417;-72
2022/12/18 07:47:22;;;;;;;60.67;26.92;;;;;;;;;;5108290;28;20453;-72
2022/12/18 07:49:49;;;;;;;57.28;26.67;;;;;;;;;;5075493;28;20807;-72
2022/12/18 07:52:18;;;;;;;46.37;24.53;;;;;;;;;;5093016;28;20552;-73
2022/12/18 07:54:44;;;;;;;47.70;24.52;;;;;;;;;;5105913;28;20935;-73
2022/12/18 07:57:10;;;;;;;45.20;23.80;;;;;;;;;;5085046;28;20419;-72
2022/12/18 07:59:36;;;;;;;51.85;25.13;;;;;;;;;;5102240;28;20531;-73
2022/12/18 08:02:06;;;;;;;50.25;25.27;;;;;;;;;;5083197;28;20477;-73
2022/12/18 08:04:35;;;;;;;47.13;25.08;;;;;;;;;;5075460;28;20454;-78
2022/12/18 08:07:01;;;;;;;50.90;24.63;;;;;;;;;;5075247;28;20440;-77
2022/12/18 08:09:27;;;;;;;81.93;28.35;;;;;;;;;;5080005;28;20950;-78
2022/12/18 08:11:54;;;;;;;49.85;26.60;;;;;;;;;;5098731;28;20750;-78
2022/12/18 08:14:20;;;;;;;46.42;24.00;;;;;;;;;;5097257;28;20412;-78
2022/12/18 08:16:46;;;;;;;45.67;24.83;;;;;;;;;;5103292;28;20470;-75
2022/12/18 08:19:12;;;;;;;52.08;25.27;;;;;;;;;;5110973;28;20420;-72
2022/12/18 08:21:38;;;;;;;38.88;22.85;;;;;;;;;;5106020;28;20411;-71
2022/12/18 08:24:04;;;;;;;44.42;23.35;;;;;;;;;;5089440;28;20418;-71
2022/12/18 08:26:31;;;;;;;46.58;23.30;;;;;;;;;;5099052;28;20756;-71
2022/12/18 08:28:58;;;;;;;45.28;25.00;;;;;;;;;;5108017;28;20821;-72
2022/12/18 08:31:25;;;;;;;44.85;25.27;;;;;;;;;;5106502;28;20426;-71
2022/12/18 08:33:52;;;;;;;40.63;22.35;;;;;;;;;;5090111;28;20493;-71
2022/12/18 08:36:18;;;;;;;40.85;23.38;;;;;;;;;;5106110;28;20496;-72
2022/12/18 08:38:45;;;;;;;43.10;23.80;;;;;;;;;;5084911;28;20928;-71
2022/12/18 08:41:12;;;;;;;161.95;32.10;;;;;;;;;;5096678;27;21031;-71
2022/12/18 08:46:24;;;;;;;42.90;23.30;;;;;;;;;;5096777;27;20494;-71
2022/12/18 08:48:55;;;;;;;41.60;23.20;;;;;;;;;;5084226;27;20445;-72
2022/12/18 08:51:21;;;;;;;43.78;23.45;;;;;;;;;;5111380;27;20923;-72
2022/12/18 08:53:47;;;;;;;42.30;22.40;;;;;;;;;;5096384;27;20530;-73
2022/12/18 08:56:14;;;;;;;40.40;23.58;;;;;;;;;;5108255;27;20485;-77
2022/12/18 08:58:40;;;;;;;39.28;21.42;;;;;;;;;;5108194;27;20496;-76
2022/12/18 09:01:09;;;;;;;38.83;21.85;;;;;;;;;;5091026;27;20460;-77
2022/12/18 09:03:35;;;;;;;71.20;24.25;;;;;;;;;;5079948;27;20916;-77
2022/12/18 09:06:01;;;;;;;39.97;21.48;;;;;;;;;;5076910;27;20472;-77
2022/12/18 09:08:27;;;;;;;36.85;21.73;;;;;;;;;;5096292;27;20417;-78
2022/12/18 09:10:53;;;;;;;38.30;22.13;;;;;;;;;;5113125;27;20433;-77
2022/12/18 09:13:28;;;;;;;37.08;21.27;;;;;;;;;;5096971;27;20412;-78
2022/12/18 09:15:55;;;;;;;38.78;21.13;;;;;;;;;;5107294;27;20414;-77
2022/12/18 09:18:23;;;;;;;38.25;21.00;;;;;;;;;;5092767;28;20923;-78
2022/12/18 09:20:50;;;;;;;33.70;21.98;;;;;;;;;;5091098;27;20414;-78
2022/12/18 09:23:16;;;;;;;37.75;21.08;;;;;;;;;;5087836;27;20455;-78
2022/12/18 09:25:42;;;;;;;34.35;20.73;;;;;;;;;;5079688;27;20438;-79
2022/12/18 09:28:12;;;;;;;36.10;21.08;;;;;;;;;;5081889;27;20537;-78
2022/12/18 09:30:39;;;;;;;32.72;20.42;;;;;;;;;;5076941;28;20412;-78
2022/12/18 09:33:05;;;;;;;32.95;20.88;;;;;;;;;;5076277;28;20933;-76
2022/12/18 09:35:31;;;;;;;34.88;20.48;;;;;;;;;;5111342;27;20463;-79
2022/12/18 09:37:59;;;;;;;32.67;19.13;;;;;;;;;;5110410;27;20935;-79
2022/12/18 09:40:26;;;;;;;32.78;20.20;;;;;;;;;;5094143;28;20431;-77
2022/12/18 09:42:56;;;;;;;33.35;19.98;;;;;;;;;;5079136;27;20424;-77
2022/12/18 09:45:22;;;;;;;30.97;19.00;;;;;;;;;;5078806;28;20941;-78
2022/12/18 09:47:49;;;;;;;29.80;17.63;;;;;;;;;;5108242;27;20421;-77
2022/12/18 09:50:35;;;;;;;29.48;17.13;;;;;;;;;;5107876;28;20951;-78
2022/12/18 09:53:21;;;;;;;29.58;17.92;;;;;;;;;;5105461;27;20434;-77
2022/12/18 09:55:48;;;;;;;28.13;17.52;;;;;;;;;;5082183;28;20420;-78
2022/12/18 09:58:18;;;;;;;33.78;18.67;;;;;;;;;;5098368;27;20430;-78
2022/12/18 10:00:46;;;;;;;25.00;15.13;;;;;;;;;;5096510;28;20428;-78
2022/12/18 10:03:13;;;;;;;27.58;17.10;;;;;;;;;;5093090;28;20465;-77
2022/12/18 10:05:39;;;;;;;26.08;17.25;;;;;;;;;;5101834;28;20420;-78
2022/12/18 10:08:12;;;;;;;25.13;16.92;;;;;;;;;;5111414;28;20799;-78
2022/12/18 10:10:49;;;;;;;31.13;16.92;;;;;;;;;;5111020;28;20433;-78
2022/12/18 10:13:34;;;;;;;25.08;16.15;;;;;;;;;;5089722;28;20416;-77
2022/12/18 10:16:06;;;;;;;25.55;16.58;;;;;;;;;;5104991;28;20420;-77
2022/12/18 10:18:38;;;;;;;25.40;15.95;;;;;;;;;;5101871;28;21485;-77
2022/12/18 10:21:10;;;;;;;24.23;15.27;;;;;;;;;;5084819;28;20416;-77
2022/12/18 10:23:36;;;;;;;21.70;15.05;;;;;;;;;;5082043;27;20464;-78
2022/12/18 10:26:06;;;;;;;22.48;15.25;;;;;;;;;;5084075;27;20410;-77
2022/12/18 10:28:34;;;;;;;23.75;15.15;;;;;;;;;;5111373;27;20482;-77
2022/12/18 10:31:00;;;;;;;25.23;16.37;;;;;;;;;;5108419;28;20464;-77
2022/12/18 10:33:29;;;;;;;24.50;15.45;;;;;;;;;;5106563;27;20421;-77
2022/12/18 10:35:55;;;;;;;22.77;14.57;;;;;;;;;;5101104;27;20399;-77
2022/12/18 10:38:23;;;;;;;22.20;14.50;;;;;;;;;;5117442;27;20414;-78
2022/12/18 10:40:55;;;;;;;20.20;12.55;;;;;;;;;;5104520;27;20428;-77
2022/12/18 10:43:23;;;;;;;20.48;12.82;;;;;;;;;;5113264;27;20460;-77
2022/12/18 10:45:58;;;;;;;19.08;12.10;;;;;;;;;;5103466;27;21620;-78
2022/12/18 10:48:25;;;;;;;18.63;11.80;;;;;;;;;;5115624;27;20489;-78
2022/12/18 10:50:51;;;;;;;17.88;12.02;;;;;;;;;;5111844;27;20414;-78
2022/12/18 10:53:29;;;;;;;17.83;11.63;;;;;;;;;;5115760;27;20414;-78
2022/12/18 10:55:56;;;;;;;17.02;11.15;;;;;;;;;;5104997;27;20429;-82
2022/12/18 10:58:32;;;;;;;18.00;11.32;;;;;;;;;;5102048;27;20423;-78
2022/12/18 11:01:04;;;;;;;18.23;12.02;;;;;;;;;;5088330;27;20455;-76
2022/12/18 11:03:32;;;;;;;17.73;11.52;;;;;;;;;;5104190;27;20462;-77
2022/12/18 11:06:05;;;;;;;14.48;10.07;;;;;;;;;;5105185;27;20415;-78
2022/12/18 11:08:32;;;;;;;16.15;10.63;;;;;;;;;;5107640;27;20510;-77
2022/12/18 11:11:01;;;;;;;15.48;10.32;;;;;;;;;;5106130;27;20411;-77
2022/12/18 11:13:29;;;;;;;19.27;11.10;;;;;;;;;;5104682;27;20758;-76
2022/12/18 11:15:55;;;;;;;15.02;9.82;;;;;;;;;;5091551;27;20933;-76
2022/12/18 11:18:34;;;;;;;14.60;9.63;;;;;;;;;;5115246;27;20917;-76
2022/12/18 11:21:02;;;;;;;14.70;9.68;;;;;;;;;;5109126;27;20829;-78
2022/12/18 11:23:28;;;;;;;13.20;9.60;;;;;;;;;;5086043;27;20464;-77
2022/12/18 11:25:56;;;;;;;14.15;8.90;;;;;;;;;;5084844;27;20414;-77
2022/12/18 11:28:34;;;;;;;13.48;8.65;;;;;;;;;;5114324;27;20443;-77
2022/12/18 11:31:13;;;;;;;12.35;8.52;;;;;;;;;;5108845;27;20422;-77
2022/12/18 11:33:41;;;;;;;15.80;9.50;;;;;;;;;;5088715;27;20550;-76
2022/12/18 11:36:08;;;;;;;13.35;8.30;;;;;;;;;;5098973;27;20505;-77
2022/12/18 11:38:39;;;;;;;12.18;7.75;;;;;;;;;;5111123;27;21027;-78
2022/12/18 11:41:20;;;;;;;12.87;8.37;;;;;;;;;;5112756;27;20485;-78
2022/12/18 11:43:50;;;;;;;12.15;7.75;;;;;;;;;;5109639;27;20730;-78
2022/12/18 11:46:40;;;;;;;13.70;8.07;;;;;;;;;;5104658;27;20414;-78
2022/12/18 11:49:22;;;;;;;23.02;8.70;;;;;;;;;;5059529;27;20474;-78
2022/12/18 11:51:51;;;;;;;12.73;7.90;;;;;;;;;;5100252;27;20881;-78
2022/12/18 11:54:17;;;;;;;12.30;8.23;;;;;;;;;;5097682;27;20418;-78
2022/12/18 11:57:02;;;;;;;12.25;7.78;;;;;;;;;;5079640;27;20979;-77
2022/12/18 11:59:40;;;;;;;10.82;7.03;;;;;;;;;;5100348;28;20788;-78
2022/12/18 12:02:15;;;;;;;12.63;7.00;;;;;;;;;;5106287;27;20909;-78
2022/12/18 12:04:42;;;;;;;11.43;7.18;;;;;;;;;;5090612;27;20442;-79
2022/12/18 12:07:18;;;;;;;12.02;7.63;;;;;;;;;;5110818;27;20421;-78
2022/12/18 12:09:44;;;;;;;11.77;7.43;;;;;;;;;;5092993;27;21191;-72
2022/12/18 12:12:29;;;;;;;12.55;7.72;;;;;;;;;;5110259;27;20747;-72
2022/12/18 12:15:03;;;;;;;9.98;6.72;;;;;;;;;;5096215;27;20826;-73
2022/12/18 12:17:43;;;;;;;12.45;7.57;;;;;;;;;;5112209;27;20410;-73
2022/12/18 12:20:16;;;;;;;11.30;6.70;;;;;;;;;;5108115;27;20761;-73
2022/12/18 12:22:49;;;;;;;10.10;6.85;;;;;;;;;;5107676;27;20501;-73
2022/12/18 12:25:34;;;;;;;10.82;7.00;;;;;;;;;;5095266;27;20490;-73
2022/12/18 12:28:18;;;;;;;9.90;6.55;;;;;;;;;;5089839;27;20854;-73
2022/12/18 12:30:47;;;;;;;10.65;7.03;;;;;;;;;;5072571;27;20542;-72
2022/12/18 12:33:27;;;;;;;9.40;6.03;;;;;;;;;;5080577;27;21633;-73
2022/12/18 12:36:00;;;;;;;9.40;6.40;;;;;;;;;;5095070;27;20931;-72
2022/12/18 12:38:36;;;;;;;11.77;6.50;;;;;;;;;;5081730;27;20424;-73
2022/12/18 12:43:12;;;;;;;9.35;6.55;;;;;;;;;;5097658;27;20742;-73
2022/12/18 12:43:53;;;;;;;9.30;5.72;;;;;;;;;;5103440;27;20419;-73
2022/12/18 12:46:23;;;;;;;9.07;5.85;;;;;;;;;;5094575;28;20420;-73
2022/12/18 12:48:55;;;;;;;10.85;6.97;;;;;;;;;;5081461;27;20426;-73
2022/12/18 12:51:23;;;;;;;9.20;6.40;;;;;;;;;;5099728;27;20418;-73
2022/12/18 12:53:54;;;;;;;10.07;6.05;;;;;;;;;;5114089;27;20514;-73
2022/12/18 12:56:21;;;;;;;9.45;6.45;;;;;;;;;;5100704;27;20450;-74
2022/12/18 12:58:56;;;;;;;9.63;6.28;;;;;;;;;;5100256;27;20415;-73
2022/12/18 13:01:33;;;;;;;9.93;6.50;;;;;;;;;;5099352;27;20455;-74
2022/12/18 13:03:59;;;;;;;10.20;6.53;;;;;;;;;;5096752;27;20939;-73
2022/12/18 13:06:31;;;;;;;9.32;6.18;;;;;;;;;;5105536;27;20939;-74
2022/12/18 13:08:58;;;;;;;10.20;6.75;;;;;;;;;;5109158;27;20433;-73
2022/12/18 13:14:30;;;;;;;11.20;7.53;;;;;;;;;;5099617;27;20419;-73
2022/12/18 13:17:15;;;;;;;11.25;6.85;;;;;;;;;;5079838;28;20416;-74
2022/12/18 13:19:42;;;;;;;12.80;7.75;;;;;;;;;;5096096;27;20510;-73
2022/12/18 13:22:21;;;;;;;10.77;7.63;;;;;;;;;;5099284;27;20532;-73
2022/12/18 13:24:53;;;;;;;11.82;6.57;;;;;;;;;;5100115;27;21059;-74
2022/12/18 13:27:41;;;;;;;9.80;6.60;;;;;;;;;;5100969;27;20408;-73
2022/12/18 13:30:26;;;;;;;10.52;6.38;;;;;;;;;;5106299;27;20468;-73
2022/12/18 13:33:12;;;;;;;11.40;7.03;;;;;;;;;;5107100;27;20497;-73
2022/12/18 13:35:39;;;;;;;9.73;6.88;;;;;;;;;;5119176;27;20415;-73
2022/12/18 13:38:20;;;;;;;11.35;6.95;;;;;;;;;;5099755;27;20430;-73
2022/12/18 13:40:47;;;;;;;10.70;7.07;;;;;;;;;;5109300;27;20506;-73
2022/12/18 13:43:21;;;;;;;11.18;6.68;;;;;;;;;;5101261;28;20419;-73
2022/12/18 13:45:47;;;;;;;9.60;6.22;;;;;;;;;;5099659;27;20406;-73
2022/12/18 13:48:18;;;;;;;10.75;6.63;;;;;;;;;;5108880;27;20414;-74
2022/12/18 13:50:48;;;;;;;10.07;6.65;;;;;;;;;;5106373;28;20419;-73
2022/12/18 13:53:20;;;;;;;11.60;6.07;;;;;;;;;;5072644;28;20555;-73
2022/12/18 13:55:50;;;;;;;11.03;6.67;;;;;;;;;;5125969;27;20447;-73
2022/12/18 13:58:17;;;;;;;10.15;6.20;;;;;;;;;;5104629;27;21141;-73
2022/12/18 14:00:43;;;;;;;11.32;6.93;;;;;;;;;;5107955;27;20523;-73
2022/12/18 14:03:20;;;;;;;11.68;6.97;;;;;;;;;;5112207;28;20779;-74
2022/12/18 14:05:52;;;;;;;11.73;6.93;;;;;;;;;;5075900;28;20455;-73
2022/12/18 14:08:18;;;;;;;12.77;7.73;;;;;;;;;;5095650;28;20413;-73
2022/12/18 14:10:46;;;;;;;14.30;7.20;;;;;;;;;;5108520;28;20464;-72
2022/12/18 14:13:19;;;;;;;14.65;8.90;;;;;;;;;;5105077;28;20420;-73
2022/12/18 14:15:48;;;;;;;12.57;7.25;;;;;;;;;;5082804;28;20595;-72
2022/12/18 14:18:22;;;;;;;12.15;6.88;;;;;;;;;;5088919;28;20498;-72
2022/12/18 14:20:49;;;;;;;12.60;6.88;;;;;;;;;;5111795;28;21008;-72
2022/12/18 14:23:38;;;;;;;13.07;8.05;;;;;;;;;;5109695;28;20406;-72
2022/12/18 14:26:27;;;;;;;23.00;11.98;;;;;;;;;;5091677;28;21244;-72
2022/12/18 14:28:53;;;;;;;10.67;7.13;;;;;;;;;;5085653;28;20419;-72
2022/12/18 14:31:27;;;;;;;12.18;7.22;;;;;;;;;;5077695;28;20415;-73
2022/12/18 14:33:53;;;;;;;14.68;9.18;;;;;;;;;;5108526;28;20420;-72
2022/12/18 14:36:21;;;;;;;11.48;7.22;;;;;;;;;;5095633;28;20946;-72